Time;durP1;ratioP1;P1;durP2;ratioP2;P2;SDS_P1;SDS_P2;PMS_P1;PMS_P2;Temp;Humidity;BMP_temperature;BMP_pressure;BME280_temperature;BME280_humidity;BME280_pressure;Samples;Min_cycle;Max_cycle;Signal;HPM_P1;HPM_P2
2023/08/09 00:02:01;;;;;;;1.08;0.90;;;13.90;99.90;;;;;;5011966;28;20026;-77
2023/08/09 00:04:27;;;;;;;2.03;0.90;;;13.80;99.90;;;;;;5002337;28;20034;-77
2023/08/09 00:06:52;;;;;;;2.58;0.88;;;13.80;99.90;;;;;;5009382;28;20488;-77
2023/08/09 00:09:20;;;;;;;10.85;1.20;;;13.80;99.90;;;;;;5009653;28;20652;-77
2023/08/09 00:11:45;;;;;;;1.58;0.75;;;13.80;99.90;;;;;;5012286;28;20034;-77
2023/08/09 00:14:11;;;;;;;2.30;1.23;;;13.80;99.90;;;;;;5008470;28;20036;-77
2023/08/09 00:16:37;;;;;;;6.82;1.15;;;13.70;99.90;;;;;;5003575;28;20026;-77
2023/08/09 00:19:03;;;;;;;0.88;0.70;;;13.70;99.90;;;;;;5013653;28;20079;-77
2023/08/09 00:21:29;;;;;;;8.25;1.13;;;13.70;99.90;;;;;;5010069;28;20034;-77
2023/08/09 00:23:55;;;;;;;3.95;0.93;;;13.70;99.90;;;;;;5007468;28;20022;-77
2023/08/09 00:26:20;;;;;;;3.75;1.00;;;13.70;99.90;;;;;;5005354;28;20033;-77
2023/08/09 00:28:46;;;;;;;2.55;0.75;;;13.60;99.90;;;;;;5016240;28;20547;-77
2023/08/09 00:31:12;;;;;;;1.48;0.85;;;13.60;99.90;;;;;;5005625;28;20091;-77
2023/08/09 00:33:37;;;;;;;1.83;0.70;;;13.60;99.90;;;;;;5013680;28;20022;-77
2023/08/09 00:36:03;;;;;;;2.38;0.70;;;13.60;99.90;;;;;;5013194;28;20057;-77
2023/08/09 00:38:29;;;;;;;1.83;0.88;;;13.60;99.90;;;;;;5019106;28;20026;-77
2023/08/09 00:40:54;;;;;;;;;;;13.60;99.90;;;;;;5014035;28;20026;-77
2023/08/09 00:43:20;;;;;;;1.05;0.73;;;13.60;99.90;;;;;;5013749;28;19906;-77
2023/08/09 00:45:48;;;;;;;1.55;0.60;;;13.60;99.90;;;;;;5001308;28;20025;-77
2023/08/09 00:48:14;;;;;;;4.55;1.00;;;13.60;99.90;;;;;;5012271;28;20021;-77
2023/08/09 00:50:40;;;;;;;2.55;1.10;;;13.60;99.90;;;;;;5010122;28;20025;-77
2023/08/09 00:53:06;;;;;;;1.58;0.90;;;13.60;99.90;;;;;;5010896;28;20041;-77
2023/08/09 00:55:33;;;;;;;6.88;1.27;;;13.60;99.90;;;;;;4999280;28;20034;-77
2023/08/09 00:57:58;;;;;;;1.95;0.73;;;13.60;99.90;;;;;;5016749;28;20454;-77
2023/08/09 01:00:24;;;;;;;1.27;1.05;;;13.60;99.90;;;;;;5006647;28;20114;-77
2023/08/09 01:02:50;;;;;;;2.50;1.00;;;13.60;99.90;;;;;;4997355;28;20026;-77
2023/08/09 01:05:15;;;;;;;3.70;0.93;;;13.50;99.90;;;;;;5001944;28;20113;-77
2023/08/09 01:07:53;;;;;;;4.30;0.80;;;13.50;99.90;;;;;;5005141;28;20065;-77
2023/08/09 01:10:28;;;;;;;2.38;1.00;;;13.50;99.90;;;;;;5021141;28;20546;-77
2023/08/09 01:12:58;;;;;;;1.83;0.80;;;13.50;99.90;;;;;;4997022;28;20030;-77
2023/08/09 01:15:25;;;;;;;8.27;0.95;;;13.50;99.90;;;;;;4999075;28;20227;-77
2023/08/09 01:17:53;;;;;;;1.90;0.50;;;13.50;99.90;;;;;;4995626;28;20109;-77
2023/08/09 01:20:21;;;;;;;1.55;0.80;;;13.50;99.90;;;;;;5012978;28;20030;-77
2023/08/09 01:23:19;;;;;;;2.63;0.85;;;13.50;99.90;;;;;;5012808;28;20477;-77
2023/08/09 01:25:45;;;;;;;2.05;1.00;;;13.50;99.90;;;;;;5007209;28;20065;-77
2023/08/09 01:28:14;;;;;;;1.27;0.73;;;13.50;99.90;;;;;;5017736;28;20398;-77
2023/08/09 01:30:40;;;;;;;2.70;1.17;;;13.40;99.90;;;;;;4998397;28;20030;-77
2023/08/09 01:33:06;;;;;;;1.08;0.90;;;13.50;99.90;;;;;;5012479;28;20037;-77
2023/08/09 01:35:37;;;;;;;1.73;0.95;;;13.40;99.90;;;;;;5003836;28;20034;-77
2023/08/09 01:38:19;;;;;;;4.32;1.75;;;13.40;99.90;;;;;;5010923;28;20046;-77
2023/08/09 01:40:45;;;;;;;4.95;2.10;;;13.40;99.90;;;;;;5005989;28;20037;-77
2023/08/09 01:43:11;;;;;;;7.10;3.08;;;13.40;99.90;;;;;;5007532;28;20026;-77
2023/08/09 01:45:37;;;;;;;4.70;3.85;;;13.40;99.90;;;;;;5001231;28;20018;-77
2023/08/09 01:48:03;;;;;;;8.65;2.80;;;13.40;99.90;;;;;;5009071;28;20411;-77
2023/08/09 01:50:28;;;;;;;;;;;13.40;99.90;;;;;;5020797;28;20022;-77
2023/08/09 01:52:58;;;;;;;4.57;2.00;;;13.40;99.90;;;;;;5002995;28;20005;-77
2023/08/09 01:55:25;;;;;;;5.55;3.28;;;13.30;99.90;;;;;;4999691;28;20029;-77
2023/08/09 01:57:51;;;;;;;5.60;2.28;;;13.30;99.90;;;;;;5005521;28;20048;-77
2023/08/09 02:00:19;;;;;;;6.90;3.45;;;13.30;99.90;;;;;;5008519;28;20544;-77
2023/08/09 02:02:49;;;;;;;4.03;1.70;;;13.30;99.90;;;;;;5015392;28;20407;-77
2023/08/09 02:05:15;;;;;;;4.70;1.65;;;13.30;99.90;;;;;;5008493;28;20625;-77
2023/08/09 02:07:41;;;;;;;4.40;2.38;;;13.20;99.90;;;;;;5007522;28;20057;-77
2023/08/09 02:10:09;;;;;;;3.30;2.17;;;13.20;99.90;;;;;;4991074;28;20061;-76
2023/08/09 02:12:34;;;;;;;4.10;1.60;;;13.10;99.90;;;;;;5013652;28;20542;-76
2023/08/09 02:15:00;;;;;;;2.08;1.17;;;13.10;99.90;;;;;;5019130;28;20121;-76
2023/08/09 02:17:27;;;;;;;5.53;1.63;;;13.10;99.90;;;;;;5002628;28;20502;-76
2023/08/09 02:19:53;;;;;;;4.72;3.03;;;13.00;99.90;;;;;;5007277;28;20029;-76
2023/08/09 02:22:21;;;;;;;3.08;1.45;;;13.00;99.90;;;;;;5015007;28;20083;-76
2023/08/09 02:24:46;;;;;;;4.25;1.40;;;12.90;99.90;;;;;;5017992;28;20033;-76
2023/08/09 02:27:12;;;;;;;3.95;1.20;;;12.90;99.90;;;;;;5005048;28;20027;-76
2023/08/09 02:29:38;;;;;;;2.53;1.33;;;12.80;99.90;;;;;;5002411;28;20037;-76
2023/08/09 02:32:04;;;;;;;4.28;1.20;;;12.80;99.90;;;;;;5010283;28;20116;-76
2023/08/09 02:34:30;;;;;;;2.33;1.20;;;12.70;99.90;;;;;;5002419;28;20121;-76
2023/08/09 02:36:56;;;;;;;1.55;0.90;;;12.70;99.90;;;;;;5006951;28;20034;-76
2023/08/09 02:39:21;;;;;;;2.63;1.05;;;12.60;99.90;;;;;;5002691;28;20041;-76
2023/08/09 02:41:47;;;;;;;;;;;12.60;99.90;;;;;;5016025;28;20478;-76
2023/08/09 02:44:12;;;;;;;1.60;1.05;;;12.60;99.90;;;;;;5000150;28;19949;-75
2023/08/09 02:46:38;;;;;;;2.10;1.58;;;12.50;99.90;;;;;;5006755;28;20428;-76
2023/08/09 02:49:03;;;;;;;3.15;1.00;;;12.50;99.90;;;;;;5011307;28;20488;-76
2023/08/09 02:51:29;;;;;;;;;;;12.50;99.90;;;;;;5007668;28;20073;-76
2023/08/09 02:54:03;;;;;;;3.22;1.17;;;12.40;99.90;;;;;;4996183;28;19913;-76
2023/08/09 02:56:30;;;;;;;1.77;1.15;;;12.40;99.90;;;;;;5005708;28;20026;-77
2023/08/09 02:58:56;;;;;;;2.60;1.20;;;12.40;99.90;;;;;;5011298;28;20099;-77
2023/08/09 03:01:22;;;;;;;2.97;1.00;;;12.30;99.90;;;;;;5016533;28;20048;-77
2023/08/09 03:03:52;;;;;;;6.03;1.75;;;12.30;99.90;;;;;;5014507;28;20083;-77
2023/08/09 03:06:18;;;;;;;1.45;1.23;;;12.30;99.90;;;;;;5016175;28;20496;-77
2023/08/09 03:08:47;;;;;;;3.90;1.38;;;12.20;99.90;;;;;;5016794;28;20057;-77
2023/08/09 03:11:14;;;;;;;2.20;1.50;;;12.20;99.90;;;;;;5005380;28;20029;-77
2023/08/09 03:13:40;;;;;;;1.95;1.10;;;12.20;99.90;;;;;;5004001;28;20030;-77
2023/08/09 03:16:05;;;;;;;2.65;1.50;;;12.20;99.90;;;;;;4989189;28;20038;-77
2023/08/09 03:18:31;;;;;;;2.35;1.30;;;12.20;99.90;;;;;;5003771;28;20037;-77
2023/08/09 03:20:57;;;;;;;4.13;1.23;;;12.10;99.90;;;;;;5006175;28;20045;-77
2023/08/09 03:23:23;;;;;;;1.40;0.82;;;12.10;99.90;;;;;;5003592;28;20030;-77
2023/08/09 03:25:48;;;;;;;3.85;1.55;;;12.10;99.90;;;;;;5010127;28;20030;-77
2023/08/09 03:28:14;;;;;;;2.35;1.05;;;12.10;99.90;;;;;;5009159;28;20030;-78
2023/08/09 03:30:39;;;;;;;3.88;0.98;;;12.00;99.90;;;;;;5002970;28;20451;-78
2023/08/09 03:33:05;;;;;;;3.13;1.02;;;12.00;99.90;;;;;;5010714;28;20433;-78
2023/08/09 03:35:31;;;;;;;5.25;1.50;;;12.00;99.90;;;;;;5005983;28;20034;-78
2023/08/09 03:37:56;;;;;;;2.30;1.48;;;12.00;99.90;;;;;;5007048;28;20042;-78
2023/08/09 03:40:22;;;;;;;;;;;11.90;99.90;;;;;;5019665;28;20380;-78
2023/08/09 03:42:47;;;;;;;5.03;1.00;;;12.00;99.90;;;;;;5013305;28;20602;-78
2023/08/09 03:45:13;;;;;;;1.75;1.23;;;11.90;99.90;;;;;;5008603;28;20443;-78
2023/08/09 03:47:39;;;;;;;3.63;1.10;;;11.90;99.90;;;;;;5011226;28;20161;-78
2023/08/09 03:50:05;;;;;;;;;;;11.90;99.90;;;;;;5019735;28;20326;-78
2023/08/09 03:52:31;;;;;;;3.90;1.30;;;11.80;99.90;;;;;;4998241;28;19917;-78
2023/08/09 03:54:56;;;;;;;2.75;1.60;;;11.90;99.90;;;;;;5007623;28;20485;-79
2023/08/09 03:57:22;;;;;;;6.45;2.13;;;11.90;99.90;;;;;;5008250;28;20033;-78
2023/08/09 03:59:49;;;;;;;4.10;2.47;;;11.90;99.90;;;;;;5013966;28;20095;-78
2023/08/09 04:02:15;;;;;;;1.80;1.20;;;11.80;99.90;;;;;;4994817;28;20049;-78
2023/08/09 04:04:41;;;;;;;3.22;2.33;;;11.80;99.90;;;;;;5012608;28;20484;-78
2023/08/09 04:07:07;;;;;;;3.47;1.75;;;11.80;99.90;;;;;;5000741;28;20026;-79
2023/08/09 04:09:32;;;;;;;6.38;1.90;;;11.80;99.90;;;;;;5006059;28;20108;-78
2023/08/09 04:11:59;;;;;;;6.28;2.10;;;12.00;99.90;;;;;;5005847;28;20042;-78
2023/08/09 04:14:25;;;;;;;7.45;2.20;;;12.00;99.90;;;;;;5008179;28;20078;-78
2023/08/09 04:16:51;;;;;;;2.90;1.33;;;12.10;99.90;;;;;;5008526;28;20029;-79
2023/08/09 04:19:16;;;;;;;3.35;1.40;;;12.30;99.90;;;;;;5011004;28;20025;-78
2023/08/09 04:21:42;;;;;;;3.17;1.40;;;12.30;99.90;;;;;;5002546;28;20430;-78
2023/08/09 04:24:09;;;;;;;4.15;2.17;;;12.50;99.90;;;;;;4998808;28;20021;-78
2023/08/09 04:26:35;;;;;;;3.78;2.03;;;12.50;99.90;;;;;;5008888;28;20049;-78
2023/08/09 04:29:02;;;;;;;3.75;1.20;;;12.60;99.90;;;;;;5002627;28;20607;-78
2023/08/09 04:31:28;;;;;;;2.70;1.02;;;12.70;99.90;;;;;;5005100;28;20113;-78
2023/08/09 04:33:54;;;;;;;1.88;0.93;;;12.90;99.90;;;;;;5004062;28;20112;-78
2023/08/09 04:36:20;;;;;;;4.57;1.55;;;13.00;99.90;;;;;;4999108;28;20042;-78
2023/08/09 04:38:46;;;;;;;4.50;1.10;;;13.30;99.90;;;;;;4999461;28;20477;-80
2023/08/09 04:41:12;;;;;;;1.63;1.15;;;13.50;99.90;;;;;;5007728;28;20032;-79
2023/08/09 04:43:42;;;;;;;5.00;1.70;;;13.80;99.90;;;;;;5011121;28;20091;-79
2023/08/09 04:46:08;;;;;;;2.95;1.60;;;14.10;99.90;;;;;;5009080;28;20110;-79
2023/08/09 04:48:33;;;;;;;4.43;1.63;;;14.50;99.90;;;;;;4999426;28;20062;-79
2023/08/09 04:50:59;;;;;;;2.38;1.02;;;14.70;99.90;;;;;;4997655;28;20030;-78
2023/08/09 04:53:24;;;;;;;;;;;14.90;99.90;;;;;;5000256;28;20023;-78
2023/08/09 04:55:50;;;;;;;5.68;1.65;;;15.20;99.90;;;;;;4998577;28;19909;-79
2023/08/09 04:58:17;;;;;;;4.75;1.60;;;15.40;99.90;;;;;;5000735;28;20100;-77
2023/08/09 05:00:42;;;;;;;7.70;1.98;;;15.50;99.90;;;;;;5009448;28;20080;-77
2023/08/09 05:03:08;;;;;;;3.30;1.17;;;15.40;99.90;;;;;;4999374;28;20019;-78
2023/08/09 05:05:33;;;;;;;2.15;1.20;;;15.20;99.90;;;;;;5002422;28;20026;-78
2023/08/09 05:07:59;;;;;;;2.35;1.48;;;14.90;99.90;;;;;;5015260;28;20373;-78
2023/08/09 05:10:25;;;;;;;4.75;1.42;;;14.70;99.90;;;;;;5008597;28;20520;-79
2023/08/09 05:12:50;;;;;;;5.18;1.48;;;14.60;99.90;;;;;;5003483;28;20410;-79
2023/08/09 05:15:16;;;;;;;2.65;1.73;;;14.50;99.90;;;;;;5005949;28;20034;-78
2023/08/09 05:17:41;;;;;;;5.72;2.72;;;14.30;99.90;;;;;;4997589;28;20035;-75
2023/08/09 05:20:07;;;;;;;4.68;1.75;;;14.50;99.90;;;;;;5005593;28;20033;-77
2023/08/09 05:22:33;;;;;;;4.13;1.60;;;14.80;99.90;;;;;;5021114;28;20022;-75
2023/08/09 05:24:59;;;;;;;2.42;1.45;;;15.10;99.90;;;;;;5025978;28;20029;-76
2023/08/09 05:27:25;;;;;;;3.08;1.77;;;15.30;99.90;;;;;;5006370;28;20057;-76
2023/08/09 05:29:50;;;;;;;6.13;1.88;;;15.30;99.90;;;;;;5010286;28;20106;-78
2023/08/09 05:32:20;;;;;;;2.90;1.98;;;15.00;99.90;;;;;;5020633;28;20488;-75
2023/08/09 05:34:45;;;;;;;6.25;2.10;;;14.70;99.90;;;;;;5015307;28;20033;-76
2023/08/09 05:37:11;;;;;;;3.92;1.20;;;14.50;99.90;;;;;;5021695;28;20026;-77
2023/08/09 05:39:36;;;;;;;1.92;1.30;;;14.40;99.90;;;;;;5009772;28;20014;-76
2023/08/09 05:42:03;;;;;;;7.45;2.13;;;14.40;99.90;;;;;;5013475;28;20476;-76
2023/08/09 05:44:28;;;;;;;7.07;1.65;;;14.30;99.90;;;;;;5029358;28;20017;-76
2023/08/09 05:46:54;;;;;;;2.72;1.30;;;14.30;99.90;;;;;;5004551;28;20072;-76
2023/08/09 05:49:19;;;;;;;2.88;1.27;;;14.20;99.90;;;;;;5014020;28;20035;-76
2023/08/09 05:51:45;;;;;;;4.13;2.00;;;14.20;99.90;;;;;;5021543;28;20507;-76
2023/08/09 05:54:10;;;;;;;2.22;1.73;;;14.20;99.90;;;;;;5010562;28;20038;-76
2023/08/09 05:56:36;;;;;;;4.25;1.77;;;14.20;99.90;;;;;;5020697;28;20038;-76
2023/08/09 05:59:02;;;;;;;5.47;1.77;;;14.20;99.90;;;;;;5008609;28;20038;-76
2023/08/09 06:01:29;;;;;;;6.90;1.75;;;14.30;99.90;;;;;;5030916;28;20076;-76
2023/08/09 06:03:55;;;;;;;2.47;1.38;;;14.30;99.90;;;;;;5026053;28;20061;-76
2023/08/09 06:06:21;;;;;;;4.47;1.42;;;14.40;99.90;;;;;;5022873;28;20086;-76
2023/08/09 06:08:46;;;;;;;5.28;1.27;;;14.50;99.90;;;;;;5013929;28;20113;-76
2023/08/09 06:11:13;;;;;;;3.75;1.58;;;14.60;99.90;;;;;;5015672;28;20439;-76
2023/08/09 06:13:38;;;;;;;4.13;1.35;;;14.60;99.90;;;;;;5014212;28;20105;-77
2023/08/09 06:16:04;;;;;;;6.35;1.75;;;14.70;99.90;;;;;;5000265;28;20069;-77
2023/08/09 06:18:30;;;;;;;5.50;1.45;;;14.80;99.90;;;;;;4995918;28;20034;-78
2023/08/09 06:20:55;;;;;;;2.90;1.40;;;14.80;99.90;;;;;;5009608;28;20118;-77
2023/08/09 06:23:21;;;;;;;4.63;1.33;;;14.90;99.90;;;;;;5015833;28;20028;-76
2023/08/09 06:25:49;;;;;;;5.15;1.48;;;14.90;99.90;;;;;;5011850;28;20063;-76
2023/08/09 06:28:16;;;;;;;3.60;1.50;;;14.90;99.90;;;;;;5010343;28;20174;-77
2023/08/09 06:30:41;;;;;;;3.28;1.58;;;14.90;99.90;;;;;;5008506;28;20022;-77
2023/08/09 06:33:07;;;;;;;5.53;1.40;;;15.00;99.90;;;;;;5007148;28;20026;-78
2023/08/09 06:35:33;;;;;;;3.85;1.58;;;15.10;99.90;;;;;;4997186;28;20061;-77
2023/08/09 06:37:58;;;;;;;5.65;1.75;;;15.10;99.90;;;;;;4991170;28;20033;-75
2023/08/09 06:40:24;;;;;;;3.53;1.17;;;15.20;99.90;;;;;;5015009;28;20022;-75
2023/08/09 06:42:50;;;;;;;4.28;1.48;;;15.20;99.90;;;;;;5004055;28;20109;-75
2023/08/09 06:45:16;;;;;;;1.98;0.85;;;15.20;99.90;;;;;;4996340;28;20034;-74
2023/08/09 06:47:41;;;;;;;6.03;1.95;;;15.30;99.90;;;;;;5001187;28;20030;-75
2023/08/09 06:50:07;;;;;;;7.63;1.70;;;15.30;99.90;;;;;;5001209;28;20033;-76
2023/08/09 06:52:36;;;;;;;3.00;1.30;;;15.30;99.90;;;;;;5015109;28;20037;-75
2023/08/09 06:55:05;;;;;;;6.88;1.83;;;15.40;99.90;;;;;;5003134;28;20026;-76
2023/08/09 06:57:31;;;;;;;2.63;1.30;;;15.60;99.90;;;;;;5013286;28;20037;-76
2023/08/09 06:59:56;;;;;;;5.40;1.40;;;15.70;99.90;;;;;;5011505;28;20031;-76
2023/08/09 07:02:22;;;;;;;4.35;1.05;;;15.80;99.90;;;;;;5011371;28;20053;-77
2023/08/09 07:04:52;;;;;;;3.53;0.95;;;15.80;99.90;;;;;;5026588;28;20061;-76
2023/08/09 07:07:19;;;;;;;8.23;1.17;;;15.90;99.90;;;;;;5028273;28;20060;-76
2023/08/09 07:09:45;;;;;;;4.15;0.95;;;16.00;99.90;;;;;;5003666;28;20037;-76
2023/08/09 07:12:10;;;;;;;3.80;1.15;;;15.90;99.90;;;;;;5007888;28;20076;-77
2023/08/09 07:14:36;;;;;;;2.80;0.98;;;15.90;99.90;;;;;;5000096;28;20026;-77
2023/08/09 07:17:02;;;;;;;4.47;1.45;;;15.80;99.90;;;;;;5013331;28;20029;-76
2023/08/09 07:19:28;;;;;;;4.10;0.95;;;15.80;99.90;;;;;;5024693;28;20100;-77
2023/08/09 07:21:53;;;;;;;3.85;0.70;;;15.90;99.90;;;;;;5014313;28;20626;-76
2023/08/09 07:24:19;;;;;;;7.53;1.10;;;15.90;99.90;;;;;;5004638;28;20030;-75
2023/08/09 07:26:44;;;;;;;4.40;1.65;;;15.90;99.90;;;;;;5005692;28;20029;-76
2023/08/09 07:29:10;;;;;;;5.82;1.00;;;15.90;99.90;;;;;;5006464;28;20033;-76
2023/08/09 07:31:35;;;;;;;4.40;1.35;;;15.90;99.90;;;;;;5006386;28;20515;-76
2023/08/09 07:34:01;;;;;;;7.60;0.90;;;16.00;99.90;;;;;;4989998;28;20045;-77
2023/08/09 07:36:27;;;;;;;6.75;1.25;;;16.10;99.90;;;;;;5013684;28;20033;-76
2023/08/09 07:38:53;;;;;;;3.85;1.10;;;16.20;99.90;;;;;;5016610;28;20025;-76
2023/08/09 07:41:18;;;;;;;3.88;1.02;;;16.40;99.90;;;;;;5013024;28;20033;-77
2023/08/09 07:43:44;;;;;;;3.17;0.63;;;16.40;99.90;;;;;;5021797;28;20026;-76
2023/08/09 07:46:10;;;;;;;3.08;0.88;;;16.50;99.90;;;;;;4998227;28;20061;-76
2023/08/09 07:48:36;;;;;;;3.03;0.77;;;16.60;99.90;;;;;;5005251;28;20081;-77
2023/08/09 07:51:02;;;;;;;7.03;1.55;;;16.60;99.90;;;;;;5006738;28;20030;-76
2023/08/09 07:53:28;;;;;;;2.05;0.70;;;16.60;99.90;;;;;;5013680;28;20092;-76
2023/08/09 07:55:54;;;;;;;6.35;1.05;;;16.60;99.90;;;;;;5020487;28;20204;-76
2023/08/09 07:58:20;;;;;;;3.97;1.10;;;16.60;99.90;;;;;;5010686;28;20030;-79
2023/08/09 08:00:46;;;;;;;3.42;0.73;;;16.60;99.90;;;;;;4996210;28;20026;-78
2023/08/09 08:03:11;;;;;;;8.13;0.85;;;16.60;99.90;;;;;;5004038;28;20054;-77
2023/08/09 08:05:37;;;;;;;6.57;1.08;;;16.80;99.90;;;;;;5011306;28;20017;-76
2023/08/09 08:08:03;;;;;;;2.22;0.82;;;16.90;99.90;;;;;;5009272;28;20328;-78
2023/08/09 08:10:29;;;;;;;5.38;1.65;;;17.10;99.90;;;;;;4998289;28;20036;-79
2023/08/09 08:12:55;;;;;;;3.05;0.70;;;17.30;99.90;;;;;;4997740;28;20022;-78
2023/08/09 08:15:20;;;;;;;3.90;1.70;;;17.50;99.90;;;;;;4996377;28;20037;-78
2023/08/09 08:17:48;;;;;;;2.10;1.08;;;17.50;99.30;;;;;;5010436;28;20030;-78
2023/08/09 08:20:17;;;;;;;4.95;0.80;;;17.50;99.70;;;;;;5011064;28;20030;-78
2023/08/09 08:22:44;;;;;;;3.70;0.75;;;17.60;99.80;;;;;;5018149;28;20033;-79
2023/08/09 08:25:11;;;;;;;8.00;1.55;;;17.70;99.00;;;;;;5016888;28;20041;-78
2023/08/09 08:27:37;;;;;;;2.25;0.88;;;17.70;98.20;;;;;;5014184;28;20034;-78
2023/08/09 08:30:04;;;;;;;4.25;0.77;;;17.50;98.90;;;;;;5007684;28;20110;-79
2023/08/09 08:32:31;;;;;;;5.03;1.02;;;17.70;98.60;;;;;;5004876;28;20105;-79
2023/08/09 08:34:56;;;;;;;5.22;1.40;;;17.90;98.70;;;;;;5011191;28;20065;-79
2023/08/09 08:37:23;;;;;;;3.15;0.82;;;18.10;98.60;;;;;;5019787;28;20492;-79
2023/08/09 08:39:49;;;;;;;1.88;0.77;;;18.30;98.50;;;;;;5009054;28;20435;-79
2023/08/09 08:42:15;;;;;;;6.57;1.05;;;18.40;98.50;;;;;;5014332;28;20026;-78
2023/08/09 08:44:40;;;;;;;2.42;0.70;;;18.50;97.60;;;;;;5011616;28;20030;-78
2023/08/09 08:47:06;;;;;;;3.38;0.70;;;18.50;97.30;;;;;;5012393;28;20041;-78
2023/08/09 08:49:34;;;;;;;6.07;0.95;;;18.50;96.90;;;;;;5002864;28;20060;-78
2023/08/09 08:52:06;;;;;;;6.03;1.13;;;18.60;96.90;;;;;;5024491;28;20029;-78
2023/08/09 08:54:32;;;;;;;1.38;0.50;;;18.70;96.90;;;;;;5016197;28;20091;-80
2023/08/09 08:56:58;;;;;;;7.10;1.08;;;18.70;95.80;;;;;;5000619;28;20026;-80
2023/08/09 08:59:24;;;;;;;4.53;0.63;;;18.70;95.60;;;;;;4997920;28;20432;-80
2023/08/09 09:01:49;;;;;;;6.53;0.80;;;18.60;96.00;;;;;;5007245;28;20068;-80
2023/08/09 09:04:15;;;;;;;1.98;0.68;;;18.60;95.60;;;;;;5019805;28;20054;-80
2023/08/09 09:06:41;;;;;;;3.35;0.80;;;18.60;95.80;;;;;;5003710;28;20058;-80
2023/08/09 09:09:13;;;;;;;5.30;1.13;;;18.70;95.20;;;;;;5022456;28;20053;-80
2023/08/09 09:11:39;;;;;;;5.28;0.70;;;18.80;95.10;;;;;;5006976;28;20028;-80
2023/08/09 09:14:10;;;;;;;5.38;0.73;;;18.90;94.80;;;;;;5013926;28;21727;-80
2023/08/09 09:16:37;;;;;;;3.03;0.70;;;19.00;94.60;;;;;;5009152;28;20067;-80
2023/08/09 09:19:03;;;;;;;1.88;0.63;;;19.10;94.40;;;;;;5020134;28;20174;-80
2023/08/09 09:21:32;;;;;;;1.80;0.77;;;18.90;93.40;;;;;;5013930;28;20161;-80
2023/08/09 09:24:05;;;;;;;4.75;1.08;;;18.80;94.40;;;;;;5015403;28;20033;-80
2023/08/09 09:26:31;;;;;;;3.28;0.90;;;18.90;94.30;;;;;;5003355;28;20026;-80
2023/08/09 09:28:57;;;;;;;2.97;0.60;;;19.00;93.60;;;;;;5011239;28;20559;-80
2023/08/09 09:31:42;;;;;;;5.95;0.63;;;18.90;93.60;;;;;;5006520;28;20121;-80
2023/08/09 09:34:11;;;;;;;4.57;0.57;;;19.00;94.00;;;;;;5012177;28;20045;-80
2023/08/09 09:36:48;;;;;;;2.28;0.68;;;19.00;93.20;;;;;;5021857;28;20033;-80
2023/08/09 09:39:14;;;;;;;2.55;0.65;;;19.10;93.30;;;;;;5008346;28;20392;-80
2023/08/09 09:41:46;;;;;;;5.15;0.70;;;19.10;93.10;;;;;;5021012;28;20034;-79
2023/08/09 09:44:12;;;;;;;3.53;0.60;;;19.30;93.60;;;;;;5006974;28;20029;-78
2023/08/09 09:46:40;;;;;;;1.00;0.50;;;19.40;93.10;;;;;;5014089;28;20416;-79
2023/08/09 09:49:06;;;;;;;2.42;0.85;;;19.50;92.90;;;;;;5015480;28;20080;-79
2023/08/09 09:51:33;;;;;;;2.13;0.38;;;19.60;91.30;;;;;;5015794;28;20018;-78
2023/08/09 09:53:58;;;;;;;4.55;0.82;;;19.60;92.40;;;;;;5003247;28;20050;-78
2023/08/09 09:56:25;;;;;;;6.60;1.02;;;19.80;92.60;;;;;;5005000;28;20488;-78
2023/08/09 09:58:51;;;;;;;5.05;0.85;;;20.00;92.20;;;;;;5013988;28;20503;-79
2023/08/09 10:01:22;;;;;;;2.83;0.95;;;20.00;90.40;;;;;;5013612;28;20038;-78
2023/08/09 10:03:48;;;;;;;1.35;0.50;;;20.00;90.80;;;;;;5016428;28;20041;-78
2023/08/09 10:06:21;;;;;;;3.17;0.60;;;19.90;90.60;;;;;;5016729;28;20084;-78
2023/08/09 10:08:49;;;;;;;2.03;0.65;;;19.90;90.20;;;;;;5011235;28;20053;-78
2023/08/09 10:11:19;;;;;;;2.72;0.40;;;19.90;90.80;;;;;;5009520;28;20026;-78
2023/08/09 10:13:46;;;;;;;5.55;0.70;;;20.10;90.60;;;;;;5010377;28;20031;-79
2023/08/09 10:16:13;;;;;;;1.80;0.63;;;20.50;89.60;;;;;;5000015;28;20069;-79
2023/08/09 10:18:44;;;;;;;0.82;0.40;;;20.80;87.00;;;;;;5012178;28;20029;-78
2023/08/09 10:21:14;;;;;;;7.97;0.80;;;21.40;88.00;;;;;;5016451;28;20057;-77
2023/08/09 10:23:54;;;;;;;2.28;0.85;;;21.60;87.70;;;;;;5019084;28;20026;-77
2023/08/09 10:26:28;;;;;;;4.13;0.70;;;21.50;86.60;;;;;;5010500;28;20034;-77
2023/08/09 10:29:05;;;;;;;1.65;0.65;;;21.30;86.50;;;;;;4997533;28;20026;-78
2023/08/09 10:31:56;;;;;;;3.25;0.80;;;21.10;85.60;;;;;;5001236;28;20062;-78
2023/08/09 10:34:34;;;;;;;1.90;0.60;;;20.90;85.20;;;;;;5000957;28;20045;-77
2023/08/09 10:37:01;;;;;;;1.23;0.45;;;20.80;85.90;;;;;;5016390;28;20026;-77
2023/08/09 10:39:28;;;;;;;2.75;0.43;;;20.80;85.60;;;;;;5008381;28;20054;-77
2023/08/09 10:42:01;;;;;;;0.68;0.30;;;20.80;81.40;;;;;;5008166;28;20026;-77
2023/08/09 10:44:33;;;;;;;3.40;0.68;;;20.50;80.60;;;;;;5014215;28;20018;-76
2023/08/09 10:47:13;;;;;;;1.90;0.40;;;20.30;82.30;;;;;;4997770;28;20042;-78
2023/08/09 10:49:48;;;;;;;3.25;0.77;;;20.40;83.80;;;;;;5005873;28;20034;-80
2023/08/09 10:52:16;;;;;;;4.53;0.57;;;20.60;83.30;;;;;;5012032;28;20424;-79
2023/08/09 10:54:41;;;;;;;3.45;0.98;;;20.60;82.20;;;;;;5018145;28;20085;-79
2023/08/09 10:57:09;;;;;;;3.20;0.90;;;20.60;82.90;;;;;;5015157;28;20528;-79
2023/08/09 10:59:37;;;;;;;7.00;0.80;;;20.60;82.90;;;;;;5013699;28;20088;-80
2023/08/09 11:02:04;;;;;;;12.38;0.68;;;20.70;82.90;;;;;;5010375;28;20435;-80
2023/08/09 11:04:29;;;;;;;3.58;0.52;;;20.80;81.10;;;;;;5009999;28;20037;-78
2023/08/09 11:06:55;;;;;;;4.78;0.50;;;20.90;82.10;;;;;;5013328;28;20029;-77
2023/08/09 11:09:22;;;;;;;4.95;0.50;;;21.20;81.80;;;;;;5005643;28;20504;-78
2023/08/09 11:11:50;;;;;;;6.88;0.73;;;21.40;80.60;;;;;;5006983;28;20034;-79
2023/08/09 11:14:21;;;;;;;5.93;0.80;;;21.50;78.20;;;;;;5016851;28;20104;-78
2023/08/09 11:16:48;;;;;;;3.13;0.40;;;21.60;79.10;;;;;;4997544;28;20033;-78
2023/08/09 11:19:19;;;;;;;2.15;0.55;;;21.40;78.70;;;;;;5020996;28;20046;-78
2023/08/09 11:21:48;;;;;;;1.38;0.38;;;21.10;79.50;;;;;;5015934;28;20052;-77
2023/08/09 11:24:16;;;;;;;1.60;0.60;;;20.90;79.60;;;;;;5012198;28;20393;-78
2023/08/09 11:26:56;;;;;;;5.07;2.38;;;20.80;80.90;;;;;;5014886;28;20048;-79
2023/08/09 11:29:25;;;;;;;0.60;0.40;;;20.70;80.90;;;;;;5019370;28;20025;-79
2023/08/09 11:31:54;;;;;;;2.53;0.60;;;20.60;77.70;;;;;;4999827;28;20500;-79
2023/08/09 11:34:21;;;;;;;1.13;0.40;;;20.40;78.70;;;;;;5012130;28;20064;-78
2023/08/09 11:36:50;;;;;;;1.25;0.40;;;20.40;79.60;;;;;;5005450;28;20045;-78
2023/08/09 11:39:17;;;;;;;0.93;0.40;;;20.60;79.50;;;;;;4996573;28;20029;-78
2023/08/09 11:41:44;;;;;;;0.77;0.38;;;20.70;78.50;;;;;;5012831;28;20067;-78
2023/08/09 11:44:13;;;;;;;4.75;0.80;;;20.90;76.50;;;;;;5003003;28;20053;-78
2023/08/09 11:46:40;;;;;;;4.82;0.70;;;21.10;76.40;;;;;;5000946;28;20030;-79
2023/08/09 11:49:07;;;;;;;2.95;0.45;;;21.40;73.90;;;;;;5011042;28;20022;-78
2023/08/09 11:51:35;;;;;;;1.20;0.80;;;21.40;74.70;;;;;;5020303;28;20030;-79
2023/08/09 11:54:01;;;;;;;0.70;0.50;;;21.20;75.60;;;;;;5001353;28;20034;-79
2023/08/09 11:56:32;;;;;;;1.65;0.50;;;21.00;76.60;;;;;;5008008;28;20370;-79
2023/08/09 11:58:59;;;;;;;2.00;0.50;;;20.90;76.50;;;;;;5010952;28;20451;-78
2023/08/09 12:01:27;;;;;;;0.77;0.47;;;21.00;75.50;;;;;;5028828;28;20038;-79
2023/08/09 12:03:54;;;;;;;1.33;0.40;;;21.00;74.40;;;;;;5012707;28;20488;-78
2023/08/09 12:06:41;;;;;;;0.93;0.40;;;21.00;74.60;;;;;;5019619;28;20036;-78
2023/08/09 12:09:37;;;;;;;1.02;0.50;;;21.10;73.60;;;;;;5008917;28;20029;-79
2023/08/09 12:12:12;;;;;;;2.22;0.55;;;21.40;73.80;;;;;;5009605;28;20041;-78
2023/08/09 12:14:39;;;;;;;2.33;0.90;;;21.60;70.70;;;;;;5009695;28;20096;-78
2023/08/09 12:17:06;;;;;;;2.58;0.40;;;21.70;70.10;;;;;;5005243;28;20487;-77
2023/08/09 12:19:32;;;;;;;1.95;0.43;;;21.50;69.90;;;;;;5006123;28;20366;-78
2023/08/09 12:21:58;;;;;;;3.53;0.40;;;21.40;70.30;;;;;;5025426;28;20109;-77
2023/08/09 12:24:24;;;;;;;2.58;0.43;;;21.00;71.80;;;;;;5015259;28;20384;-77
2023/08/09 12:26:50;;;;;;;2.38;0.88;;;20.80;73.60;;;;;;5026960;28;20026;-76
2023/08/09 12:29:16;;;;;;;1.23;0.40;;;20.80;73.90;;;;;;5006168;28;20018;-76
2023/08/09 12:31:42;;;;;;;0.80;0.28;;;20.90;73.30;;;;;;4997529;28;20033;-76
2023/08/09 12:34:10;;;;;;;2.63;0.60;;;20.90;73.50;;;;;;5003810;28;20018;-77
2023/08/09 12:36:36;;;;;;;4.22;1.00;;;21.00;73.10;;;;;;5001577;28;20029;-75
2023/08/09 12:39:01;;;;;;;2.30;1.08;;;21.20;75.90;;;;;;5005220;28;20034;-73
2023/08/09 12:41:27;;;;;;;8.60;0.90;;;21.40;75.00;;;;;;5002699;28;20495;-74
2023/08/09 12:43:53;;;;;;;2.10;0.60;;;21.70;73.50;;;;;;5024110;28;20027;-74
2023/08/09 12:46:18;;;;;;;3.05;0.90;;;21.90;73.10;;;;;;4998308;28;20485;-74
2023/08/09 12:48:46;;;;;;;1.25;0.75;;;22.00;73.50;;;;;;5017488;28;20038;-74